sensor_id;sensor_type;location;lat;lon;timestamp;P1;durP1;ratioP1;P2;durP2;ratioP2
44120;SDS011;29783;52.504;13.478;2023-06-04T00:00:24;4.00;;;1.77;;
44120;SDS011;29783;52.504;13.478;2023-06-04T00:02:50;2.58;;;1.50;;
44120;SDS011;29783;52.504;13.478;2023-06-04T00:05:16;2.97;;;1.60;;
44120;SDS011;29783;52.504;13.478;2023-06-04T00:07:42;2.30;;;1.40;;
44120;SDS011;29783;52.504;13.478;2023-06-04T00:10:08;6.72;;;1.50;;
44120;SDS011;29783;52.504;13.478;2023-06-04T00:12:34;2.80;;;1.42;;
44120;SDS011;29783;52.504;13.478;2023-06-04T00:15:00;2.50;;;1.40;;
44120;SDS011;29783;52.504;13.478;2023-06-04T00:17:26;2.78;;;1.20;;
44120;SDS011;29783;52.504;13.478;2023-06-04T00:19:52;3.70;;;1.25;;
44120;SDS011;29783;52.504;13.478;2023-06-04T00:22:17;2.80;;;1.17;;
44120;SDS011;29783;52.504;13.478;2023-06-04T00:24:43;3.20;;;1.20;;
44120;SDS011;29783;52.504;13.478;2023-06-04T00:27:09;5.07;;;1.20;;
44120;SDS011;29783;52.504;13.478;2023-06-04T00:29:34;1.70;;;1.05;;
44120;SDS011;29783;52.504;13.478;2023-06-04T00:32:01;2.78;;;1.30;;
44120;SDS011;29783;52.504;13.478;2023-06-04T00:34:27;2.25;;;1.33;;
44120;SDS011;29783;52.504;13.478;2023-06-04T00:36:53;5.18;;;1.33;;
44120;SDS011;29783;52.504;13.478;2023-06-04T00:39:18;7.65;;;1.40;;
44120;SDS011;29783;52.504;13.478;2023-06-04T00:41:44;2.08;;;1.30;;
44120;SDS011;29783;52.504;13.478;2023-06-04T00:44:10;1.20;;;0.93;;
44120;SDS011;29783;52.504;13.478;2023-06-04T00:46:36;2.22;;;1.17;;
44120;SDS011;29783;52.504;13.478;2023-06-04T00:49:03;4.55;;;1.00;;
44120;SDS011;29783;52.504;13.478;2023-06-04T00:51:30;3.97;;;1.42;;
44120;SDS011;29783;52.504;13.478;2023-06-04T00:53:57;6.32;;;1.35;;
44120;SDS011;29783;52.504;13.478;2023-06-04T00:56:23;1.48;;;0.93;;
44120;SDS011;29783;52.504;13.478;2023-06-04T00:58:49;3.25;;;1.38;;
44120;SDS011;29783;52.504;13.478;2023-06-04T01:03:48;4.32;;;1.10;;
44120;SDS011;29783;52.504;13.478;2023-06-04T01:06:21;2.17;;;1.10;;
44120;SDS011;29783;52.504;13.478;2023-06-04T01:09:14;4.82;;;1.02;;
44120;SDS011;29783;52.504;13.478;2023-06-04T01:11:40;6.50;;;1.20;;
44120;SDS011;29783;52.504;13.478;2023-06-04T01:14:08;3.45;;;1.35;;
44120;SDS011;29783;52.504;13.478;2023-06-04T01:16:45;4.05;;;1.35;;
44120;SDS011;29783;52.504;13.478;2023-06-04T01:19:32;1.95;;;1.02;;
44120;SDS011;29783;52.504;13.478;2023-06-04T01:22:04;4.07;;;2.00;;
44120;SDS011;29783;52.504;13.478;2023-06-04T01:24:41;8.10;;;2.03;;
44120;SDS011;29783;52.504;13.478;2023-06-04T01:27:13;5.72;;;2.45;;
44120;SDS011;29783;52.504;13.478;2023-06-04T01:29:40;8.70;;;2.22;;
44120;SDS011;29783;52.504;13.478;2023-06-04T01:32:07;4.57;;;2.00;;
44120;SDS011;29783;52.504;13.478;2023-06-04T01:34:42;3.05;;;2.10;;
44120;SDS011;29783;52.504;13.478;2023-06-04T01:37:11;3.20;;;1.90;;
44120;SDS011;29783;52.504;13.478;2023-06-04T01:39:38;4.15;;;1.92;;
44120;SDS011;29783;52.504;13.478;2023-06-04T01:42:04;5.13;;;1.88;;
44120;SDS011;29783;52.504;13.478;2023-06-04T01:44:30;2.90;;;1.48;;
44120;SDS011;29783;52.504;13.478;2023-06-04T01:46:55;4.05;;;1.77;;
44120;SDS011;29783;52.504;13.478;2023-06-04T01:49:21;6.03;;;1.52;;
44120;SDS011;29783;52.504;13.478;2023-06-04T01:51:46;5.50;;;1.40;;
44120;SDS011;29783;52.504;13.478;2023-06-04T01:54:12;5.97;;;1.25;;
44120;SDS011;29783;52.504;13.478;2023-06-04T01:56:38;7.05;;;1.92;;
44120;SDS011;29783;52.504;13.478;2023-06-04T01:59:03;2.28;;;1.38;;
44120;SDS011;29783;52.504;13.478;2023-06-04T02:01:29;3.88;;;1.70;;
44120;SDS011;29783;52.504;13.478;2023-06-04T02:03:55;4.45;;;1.50;;
44120;SDS011;29783;52.504;13.478;2023-06-04T02:06:20;3.97;;;1.73;;
44120;SDS011;29783;52.504;13.478;2023-06-04T02:08:46;5.05;;;1.40;;
44120;SDS011;29783;52.504;13.478;2023-06-04T02:11:11;4.05;;;1.45;;
44120;SDS011;29783;52.504;13.478;2023-06-04T02:13:37;4.00;;;1.40;;
44120;SDS011;29783;52.504;13.478;2023-06-04T02:16:03;3.75;;;1.40;;
44120;SDS011;29783;52.504;13.478;2023-06-04T02:18:29;1.88;;;1.10;;
44120;SDS011;29783;52.504;13.478;2023-06-04T02:20:56;4.07;;;1.35;;
44120;SDS011;29783;52.504;13.478;2023-06-04T02:23:21;4.93;;;1.48;;
44120;SDS011;29783;52.504;13.478;2023-06-04T02:25:47;1.70;;;1.30;;
44120;SDS011;29783;52.504;13.478;2023-06-04T02:28:14;5.90;;;1.55;;
44120;SDS011;29783;52.504;13.478;2023-06-04T02:30:40;2.05;;;1.40;;
44120;SDS011;29783;52.504;13.478;2023-06-04T02:33:06;3.90;;;1.85;;
44120;SDS011;29783;52.504;13.478;2023-06-04T02:35:34;2.95;;;1.38;;
44120;SDS011;29783;52.504;13.478;2023-06-04T02:38:00;3.08;;;1.40;;
44120;SDS011;29783;52.504;13.478;2023-06-04T02:40:26;4.15;;;1.30;;
44120;SDS011;29783;52.504;13.478;2023-06-04T02:42:53;1.75;;;1.30;;
44120;SDS011;29783;52.504;13.478;2023-06-04T02:45:20;2.30;;;1.25;;
44120;SDS011;29783;52.504;13.478;2023-06-04T02:47:46;4.13;;;1.58;;
44120;SDS011;29783;52.504;13.478;2023-06-04T02:50:12;5.95;;;1.45;;
44120;SDS011;29783;52.504;13.478;2023-06-04T02:52:39;1.88;;;1.23;;
44120;SDS011;29783;52.504;13.478;2023-06-04T02:55:05;3.83;;;1.40;;
44120;SDS011;29783;52.504;13.478;2023-06-04T02:57:32;2.75;;;1.70;;
44120;SDS011;29783;52.504;13.478;2023-06-04T02:59:58;4.22;;;1.52;;
44120;SDS011;29783;52.504;13.478;2023-06-04T03:02:24;1.67;;;1.20;;
44120;SDS011;29783;52.504;13.478;2023-06-04T03:04:50;4.13;;;1.40;;
44120;SDS011;29783;52.504;13.478;2023-06-04T03:07:17;3.60;;;1.50;;
44120;SDS011;29783;52.504;13.478;2023-06-04T03:09:46;5.10;;;1.42;;
44120;SDS011;29783;52.504;13.478;2023-06-04T03:12:12;4.43;;;1.60;;
44120;SDS011;29783;52.504;13.478;2023-06-04T03:14:37;2.63;;;1.80;;
44120;SDS011;29783;52.504;13.478;2023-06-04T03:17:03;5.30;;;1.58;;
44120;SDS011;29783;52.504;13.478;2023-06-04T03:19:39;6.50;;;1.70;;
44120;SDS011;29783;52.504;13.478;2023-06-04T03:22:06;5.05;;;1.65;;
44120;SDS011;29783;52.504;13.478;2023-06-04T03:24:34;2.35;;;1.58;;
44120;SDS011;29783;52.504;13.478;2023-06-04T03:27:01;5.65;;;1.90;;
44120;SDS011;29783;52.504;13.478;2023-06-04T03:29:28;3.17;;;1.58;;
44120;SDS011;29783;52.504;13.478;2023-06-04T03:31:53;4.97;;;1.73;;
44120;SDS011;29783;52.504;13.478;2023-06-04T03:34:19;4.50;;;1.67;;
44120;SDS011;29783;52.504;13.478;2023-06-04T03:36:45;7.25;;;1.23;;
44120;SDS011;29783;52.504;13.478;2023-06-04T03:39:11;3.50;;;1.38;;
44120;SDS011;29783;52.504;13.478;2023-06-04T03:41:36;4.05;;;1.60;;
44120;SDS011;29783;52.504;13.478;2023-06-04T03:44:02;2.50;;;1.30;;
44120;SDS011;29783;52.504;13.478;2023-06-04T03:46:27;3.08;;;1.42;;
44120;SDS011;29783;52.504;13.478;2023-06-04T03:48:56;3.22;;;1.30;;
44120;SDS011;29783;52.504;13.478;2023-06-04T03:51:22;3.42;;;1.30;;
44120;SDS011;29783;52.504;13.478;2023-06-04T03:53:48;5.53;;;1.50;;
44120;SDS011;29783;52.504;13.478;2023-06-04T03:56:13;5.35;;;1.58;;
44120;SDS011;29783;52.504;13.478;2023-06-04T03:58:39;4.90;;;1.40;;
44120;SDS011;29783;52.504;13.478;2023-06-04T04:01:05;5.93;;;1.60;;
44120;SDS011;29783;52.504;13.478;2023-06-04T04:03:31;4.05;;;1.40;;
44120;SDS011;29783;52.504;13.478;2023-06-04T04:05:59;3.95;;;1.40;;
44120;SDS011;29783;52.504;13.478;2023-06-04T04:08:25;9.70;;;1.25;;
44120;SDS011;29783;52.504;13.478;2023-06-04T04:10:55;9.88;;;1.58;;
44120;SDS011;29783;52.504;13.478;2023-06-04T04:13:20;4.47;;;1.30;;
44120;SDS011;29783;52.504;13.478;2023-06-04T04:15:46;6.40;;;1.70;;
44120;SDS011;29783;52.504;13.478;2023-06-04T04:18:12;4.15;;;1.10;;
44120;SDS011;29783;52.504;13.478;2023-06-04T04:20:38;2.05;;;1.20;;
44120;SDS011;29783;52.504;13.478;2023-06-04T04:23:04;2.22;;;1.20;;
44120;SDS011;29783;52.504;13.478;2023-06-04T04:25:31;1.65;;;1.30;;
44120;SDS011;29783;52.504;13.478;2023-06-04T04:27:57;2.60;;;1.10;;
44120;SDS011;29783;52.504;13.478;2023-06-04T04:30:25;4.72;;;1.30;;
44120;SDS011;29783;52.504;13.478;2023-06-04T04:32:51;3.75;;;1.45;;
44120;SDS011;29783;52.504;13.478;2023-06-04T04:35:16;3.15;;;1.35;;
44120;SDS011;29783;52.504;13.478;2023-06-04T04:37:43;2.85;;;1.33;;
44120;SDS011;29783;52.504;13.478;2023-06-04T04:40:10;2.47;;;0.93;;
44120;SDS011;29783;52.504;13.478;2023-06-04T04:42:36;4.43;;;1.52;;
44120;SDS011;29783;52.504;13.478;2023-06-04T04:45:02;3.67;;;1.40;;
44120;SDS011;29783;52.504;13.478;2023-06-04T04:47:28;3.22;;;1.45;;
44120;SDS011;29783;52.504;13.478;2023-06-04T04:49:54;7.57;;;1.38;;
44120;SDS011;29783;52.504;13.478;2023-06-04T04:52:19;10.18;;;1.48;;
44120;SDS011;29783;52.504;13.478;2023-06-04T04:54:45;1.85;;;1.15;;
44120;SDS011;29783;52.504;13.478;2023-06-04T04:57:11;3.00;;;1.23;;
44120;SDS011;29783;52.504;13.478;2023-06-04T04:59:36;2.95;;;1.15;;
44120;SDS011;29783;52.504;13.478;2023-06-04T05:02:02;7.65;;;1.48;;
44120;SDS011;29783;52.504;13.478;2023-06-04T05:04:27;7.50;;;1.38;;
44120;SDS011;29783;52.504;13.478;2023-06-04T05:06:53;3.67;;;1.50;;
44120;SDS011;29783;52.504;13.478;2023-06-04T05:09:18;14.13;;;1.60;;
44120;SDS011;29783;52.504;13.478;2023-06-04T05:11:44;4.03;;;1.20;;
44120;SDS011;29783;52.504;13.478;2023-06-04T05:14:10;9.23;;;1.30;;
44120;SDS011;29783;52.504;13.478;2023-06-04T05:16:36;2.35;;;1.13;;
44120;SDS011;29783;52.504;13.478;2023-06-04T05:19:03;2.85;;;1.35;;
44120;SDS011;29783;52.504;13.478;2023-06-04T05:21:29;5.60;;;1.27;;
44120;SDS011;29783;52.504;13.478;2023-06-04T05:23:55;4.43;;;1.63;;
44120;SDS011;29783;52.504;13.478;2023-06-04T05:26:21;4.13;;;1.98;;
44120;SDS011;29783;52.504;13.478;2023-06-04T05:28:50;4.63;;;1.75;;
44120;SDS011;29783;52.504;13.478;2023-06-04T05:31:16;4.28;;;1.50;;
44120;SDS011;29783;52.504;13.478;2023-06-04T05:33:43;9.13;;;1.58;;
44120;SDS011;29783;52.504;13.478;2023-06-04T05:36:09;3.80;;;1.23;;
44120;SDS011;29783;52.504;13.478;2023-06-04T05:38:34;3.38;;;1.25;;
44120;SDS011;29783;52.504;13.478;2023-06-04T05:41:00;4.90;;;1.48;;
44120;SDS011;29783;52.504;13.478;2023-06-04T05:43:26;5.10;;;1.35;;
44120;SDS011;29783;52.504;13.478;2023-06-04T05:45:52;3.83;;;1.52;;
44120;SDS011;29783;52.504;13.478;2023-06-04T05:48:18;5.38;;;1.55;;
44120;SDS011;29783;52.504;13.478;2023-06-04T05:50:44;2.97;;;1.40;;
44120;SDS011;29783;52.504;13.478;2023-06-04T05:53:10;3.92;;;1.40;;
44120;SDS011;29783;52.504;13.478;2023-06-04T05:55:35;2.95;;;1.30;;
44120;SDS011;29783;52.504;13.478;2023-06-04T05:58:01;4.47;;;1.23;;
44120;SDS011;29783;52.504;13.478;2023-06-04T06:00:27;3.65;;;1.27;;
44120;SDS011;29783;52.504;13.478;2023-06-04T06:02:52;7.80;;;1.35;;
44120;SDS011;29783;52.504;13.478;2023-06-04T06:05:19;2.90;;;0.98;;
44120;SDS011;29783;52.504;13.478;2023-06-04T06:07:45;1.92;;;1.00;;
44120;SDS011;29783;52.504;13.478;2023-06-04T06:10:11;3.30;;;1.02;;
44120;SDS011;29783;52.504;13.478;2023-06-04T06:12:38;2.95;;;1.05;;
44120;SDS011;29783;52.504;13.478;2023-06-04T06:15:04;7.38;;;1.27;;
44120;SDS011;29783;52.504;13.478;2023-06-04T06:17:30;5.50;;;1.00;;
44120;SDS011;29783;52.504;13.478;2023-06-04T06:19:58;12.90;;;1.50;;
44120;SDS011;29783;52.504;13.478;2023-06-04T06:22:23;5.80;;;1.30;;
44120;SDS011;29783;52.504;13.478;2023-06-04T06:24:49;2.88;;;1.17;;
44120;SDS011;29783;52.504;13.478;2023-06-04T06:27:15;5.55;;;1.20;;
44120;SDS011;29783;52.504;13.478;2023-06-04T06:29:41;9.63;;;1.15;;
44120;SDS011;29783;52.504;13.478;2023-06-04T06:32:07;5.38;;;1.25;;
44120;SDS011;29783;52.504;13.478;2023-06-04T06:34:33;3.85;;;1.30;;
44120;SDS011;29783;52.504;13.478;2023-06-04T06:36:59;8.70;;;1.02;;
44120;SDS011;29783;52.504;13.478;2023-06-04T06:39:25;4.47;;;1.10;;
44120;SDS011;29783;52.504;13.478;2023-06-04T06:41:52;3.35;;;0.95;;
44120;SDS011;29783;52.504;13.478;2023-06-04T06:44:17;6.63;;;1.25;;
44120;SDS011;29783;52.504;13.478;2023-06-04T06:46:43;5.15;;;1.10;;
44120;SDS011;29783;52.504;13.478;2023-06-04T06:49:09;4.75;;;1.10;;
44120;SDS011;29783;52.504;13.478;2023-06-04T06:51:34;1.42;;;0.90;;
44120;SDS011;29783;52.504;13.478;2023-06-04T06:54:00;4.10;;;1.00;;
44120;SDS011;29783;52.504;13.478;2023-06-04T06:56:25;2.58;;;0.82;;
44120;SDS011;29783;52.504;13.478;2023-06-04T06:58:51;2.08;;;0.90;;
44120;SDS011;29783;52.504;13.478;2023-06-04T07:01:17;5.25;;;0.65;;
44120;SDS011;29783;52.504;13.478;2023-06-04T07:03:42;8.65;;;0.90;;
44120;SDS011;29783;52.504;13.478;2023-06-04T07:06:08;1.98;;;0.80;;
44120;SDS011;29783;52.504;13.478;2023-06-04T07:08:34;7.63;;;0.85;;
44120;SDS011;29783;52.504;13.478;2023-06-04T07:11:00;3.88;;;0.90;;
44120;SDS011;29783;52.504;13.478;2023-06-04T07:13:27;6.63;;;1.00;;
44120;SDS011;29783;52.504;13.478;2023-06-04T07:15:53;2.50;;;0.80;;
44120;SDS011;29783;52.504;13.478;2023-06-04T07:18:19;3.10;;;1.00;;
44120;SDS011;29783;52.504;13.478;2023-06-04T07:20:44;4.68;;;1.13;;
44120;SDS011;29783;52.504;13.478;2023-06-04T07:23:10;1.83;;;0.90;;
44120;SDS011;29783;52.504;13.478;2023-06-04T07:25:36;7.03;;;1.15;;
44120;SDS011;29783;52.504;13.478;2023-06-04T07:28:01;4.47;;;0.95;;
44120;SDS011;29783;52.504;13.478;2023-06-04T07:30:29;2.65;;;0.75;;
44120;SDS011;29783;52.504;13.478;2023-06-04T07:32:56;3.22;;;1.08;;
44120;SDS011;29783;52.504;13.478;2023-06-04T07:35:23;7.05;;;0.80;;
44120;SDS011;29783;52.504;13.478;2023-06-04T07:37:49;1.38;;;0.50;;
44120;SDS011;29783;52.504;13.478;2023-06-04T07:40:15;5.53;;;0.82;;
44120;SDS011;29783;52.504;13.478;2023-06-04T07:42:42;1.60;;;0.73;;
44120;SDS011;29783;52.504;13.478;2023-06-04T07:45:08;3.53;;;0.60;;
44120;SDS011;29783;52.504;13.478;2023-06-04T07:47:38;1.10;;;0.60;;
44120;SDS011;29783;52.504;13.478;2023-06-04T07:50:04;4.10;;;0.80;;
44120;SDS011;29783;52.504;13.478;2023-06-04T07:52:30;1.25;;;0.70;;
44120;SDS011;29783;52.504;13.478;2023-06-04T07:54:56;5.28;;;0.70;;
44120;SDS011;29783;52.504;13.478;2023-06-04T07:57:22;10.32;;;0.77;;
44120;SDS011;29783;52.504;13.478;2023-06-04T07:59:48;0.82;;;0.60;;
44120;SDS011;29783;52.504;13.478;2023-06-04T08:02:14;2.35;;;0.50;;
44120;SDS011;29783;52.504;13.478;2023-06-04T08:04:40;5.78;;;0.70;;
44120;SDS011;29783;52.504;13.478;2023-06-04T08:07:06;3.55;;;0.70;;
44120;SDS011;29783;52.504;13.478;2023-06-04T08:09:32;8.07;;;0.80;;
44120;SDS011;29783;52.504;13.478;2023-06-04T08:11:57;3.65;;;0.70;;
44120;SDS011;29783;52.504;13.478;2023-06-04T08:14:23;4.40;;;0.55;;
44120;SDS011;29783;52.504;13.478;2023-06-04T08:16:51;7.13;;;0.77;;
44120;SDS011;29783;52.504;13.478;2023-06-04T08:19:17;2.58;;;0.75;;
44120;SDS011;29783;52.504;13.478;2023-06-04T08:21:43;6.57;;;0.70;;
44120;SDS011;29783;52.504;13.478;2023-06-04T08:24:10;1.73;;;0.73;;
44120;SDS011;29783;52.504;13.478;2023-06-04T08:26:35;3.40;;;0.82;;
44120;SDS011;29783;52.504;13.478;2023-06-04T08:29:02;1.30;;;0.60;;
44120;SDS011;29783;52.504;13.478;2023-06-04T08:31:29;2.75;;;0.65;;
44120;SDS011;29783;52.504;13.478;2023-06-04T08:33:55;2.53;;;0.63;;
44120;SDS011;29783;52.504;13.478;2023-06-04T08:36:20;2.65;;;0.90;;
44120;SDS011;29783;52.504;13.478;2023-06-04T08:38:46;4.30;;;0.50;;
44120;SDS011;29783;52.504;13.478;2023-06-04T08:41:16;3.05;;;0.60;;
44120;SDS011;29783;52.504;13.478;2023-06-04T08:44:01;7.35;;;1.08;;
44120;SDS011;29783;52.504;13.478;2023-06-04T08:46:31;5.68;;;1.30;;
44120;SDS011;29783;52.504;13.478;2023-06-04T08:48:59;1.63;;;0.50;;
44120;SDS011;29783;52.504;13.478;2023-06-04T08:51:29;2.78;;;0.60;;
44120;SDS011;29783;52.504;13.478;2023-06-04T08:53:58;3.95;;;0.77;;
44120;SDS011;29783;52.504;13.478;2023-06-04T08:56:24;7.95;;;1.17;;
44120;SDS011;29783;52.504;13.478;2023-06-04T08:58:53;5.55;;;0.60;;
44120;SDS011;29783;52.504;13.478;2023-06-04T09:01:24;2.63;;;0.80;;
44120;SDS011;29783;52.504;13.478;2023-06-04T09:03:50;2.55;;;0.63;;
44120;SDS011;29783;52.504;13.478;2023-06-04T09:06:16;1.85;;;0.70;;
44120;SDS011;29783;52.504;13.478;2023-06-04T09:08:42;1.73;;;0.57;;
44120;SDS011;29783;52.504;13.478;2023-06-04T09:11:10;3.55;;;0.60;;
44120;SDS011;29783;52.504;13.478;2023-06-04T09:13:37;5.25;;;0.82;;
44120;SDS011;29783;52.504;13.478;2023-06-04T09:16:05;3.50;;;0.47;;
44120;SDS011;29783;52.504;13.478;2023-06-04T09:18:31;2.55;;;0.60;;
44120;SDS011;29783;52.504;13.478;2023-06-04T09:23:30;3.65;;;0.70;;
44120;SDS011;29783;52.504;13.478;2023-06-04T09:26:05;5.50;;;0.70;;
44120;SDS011;29783;52.504;13.478;2023-06-04T09:28:32;7.10;;;0.65;;
44120;SDS011;29783;52.504;13.478;2023-06-04T09:30:57;4.00;;;0.50;;
44120;SDS011;29783;52.504;13.478;2023-06-04T09:33:23;9.00;;;1.05;;
44120;SDS011;29783;52.504;13.478;2023-06-04T09:35:55;3.05;;;0.70;;
44120;SDS011;29783;52.504;13.478;2023-06-04T09:38:21;4.35;;;0.82;;
44120;SDS011;29783;52.504;13.478;2023-06-04T09:40:47;1.25;;;0.70;;
44120;SDS011;29783;52.504;13.478;2023-06-04T09:43:23;1.15;;;0.55;;
44120;SDS011;29783;52.504;13.478;2023-06-04T09:45:48;1.77;;;0.50;;
44120;SDS011;29783;52.504;13.478;2023-06-04T09:48:20;1.67;;;0.60;;
44120;SDS011;29783;52.504;13.478;2023-06-04T09:50:46;1.70;;;0.60;;
44120;SDS011;29783;52.504;13.478;2023-06-04T09:53:13;0.95;;;0.60;;
44120;SDS011;29783;52.504;13.478;2023-06-04T09:55:55;4.15;;;0.80;;
44120;SDS011;29783;52.504;13.478;2023-06-04T09:58:23;5.35;;;0.90;;
44120;SDS011;29783;52.504;13.478;2023-06-04T10:00:52;4.15;;;0.85;;
44120;SDS011;29783;52.504;13.478;2023-06-04T10:03:20;14.82;;;0.90;;
44120;SDS011;29783;52.504;13.478;2023-06-04T10:05:51;3.80;;;0.60;;
44120;SDS011;29783;52.504;13.478;2023-06-04T10:08:19;2.10;;;0.70;;
44120;SDS011;29783;52.504;13.478;2023-06-04T10:10:48;2.38;;;0.70;;
44120;SDS011;29783;52.504;13.478;2023-06-04T10:13:17;1.23;;;0.80;;
44120;SDS011;29783;52.504;13.478;2023-06-04T10:15:44;1.50;;;0.60;;
44120;SDS011;29783;52.504;13.478;2023-06-04T10:18:11;2.88;;;0.90;;
44120;SDS011;29783;52.504;13.478;2023-06-04T10:20:38;1.40;;;0.70;;
44120;SDS011;29783;52.504;13.478;2023-06-04T10:23:05;1.75;;;0.93;;
44120;SDS011;29783;52.504;13.478;2023-06-04T10:25:32;5.45;;;0.73;;
44120;SDS011;29783;52.504;13.478;2023-06-04T10:28:01;9.80;;;0.98;;
44120;SDS011;29783;52.504;13.478;2023-06-04T10:30:28;2.47;;;0.60;;
44120;SDS011;29783;52.504;13.478;2023-06-04T10:32:55;5.30;;;0.90;;
44120;SDS011;29783;52.504;13.478;2023-06-04T10:40:55;2.78;;;0.70;;
44120;SDS011;29783;52.504;13.478;2023-06-04T10:43:20;2.58;;;0.63;;
44120;SDS011;29783;52.504;13.478;2023-06-04T10:45:46;2.65;;;0.70;;
44120;SDS011;29783;52.504;13.478;2023-06-04T10:48:12;5.15;;;0.90;;
44120;SDS011;29783;52.504;13.478;2023-06-04T10:50:48;2.80;;;0.82;;
44120;SDS011;29783;52.504;13.478;2023-06-04T10:53:16;6.38;;;0.77;;
44120;SDS011;29783;52.504;13.478;2023-06-04T10:55:44;7.05;;;0.80;;
44120;SDS011;29783;52.504;13.478;2023-06-04T10:58:10;8.50;;;0.82;;
44120;SDS011;29783;52.504;13.478;2023-06-04T11:03:04;1.77;;;0.75;;
44120;SDS011;29783;52.504;13.478;2023-06-04T11:05:38;2.53;;;0.68;;
44120;SDS011;29783;52.504;13.478;2023-06-04T11:08:06;7.15;;;0.80;;
44120;SDS011;29783;52.504;13.478;2023-06-04T11:10:33;2.10;;;0.70;;
44120;SDS011;29783;52.504;13.478;2023-06-04T11:13:01;3.83;;;0.90;;
44120;SDS011;29783;52.504;13.478;2023-06-04T11:15:36;3.55;;;0.80;;
44120;SDS011;29783;52.504;13.478;2023-06-04T11:18:03;1.80;;;0.70;;
44120;SDS011;29783;52.504;13.478;2023-06-04T11:20:28;2.75;;;1.00;;
44120;SDS011;29783;52.504;13.478;2023-06-04T11:22:55;4.32;;;1.00;;
44120;SDS011;29783;52.504;13.478;2023-06-04T11:25:23;3.25;;;0.63;;
44120;SDS011;29783;52.504;13.478;2023-06-04T11:27:51;1.15;;;0.85;;
44120;SDS011;29783;52.504;13.478;2023-06-04T11:30:18;5.72;;;0.82;;
44120;SDS011;29783;52.504;13.478;2023-06-04T11:32:44;2.10;;;0.80;;
44120;SDS011;29783;52.504;13.478;2023-06-04T11:35:10;2.15;;;0.60;;
44120;SDS011;29783;52.504;13.478;2023-06-04T11:37:36;3.78;;;0.85;;
44120;SDS011;29783;52.504;13.478;2023-06-04T11:40:03;4.13;;;0.85;;
44120;SDS011;29783;52.504;13.478;2023-06-04T11:42:47;1.95;;;0.70;;
44120;SDS011;29783;52.504;13.478;2023-06-04T11:45:13;4.78;;;0.65;;
44120;SDS011;29783;52.504;13.478;2023-06-04T11:47:46;1.48;;;0.70;;
44120;SDS011;29783;52.504;13.478;2023-06-04T11:50:13;0.70;;;0.60;;
44120;SDS011;29783;52.504;13.478;2023-06-04T11:52:40;1.52;;;0.60;;
44120;SDS011;29783;52.504;13.478;2023-06-04T11:55:09;2.28;;;0.70;;
44120;SDS011;29783;52.504;13.478;2023-06-04T11:57:39;2.55;;;0.70;;
44120;SDS011;29783;52.504;13.478;2023-06-04T12:00:06;1.92;;;0.80;;
44120;SDS011;29783;52.504;13.478;2023-06-04T12:02:36;4.72;;;0.60;;
44120;SDS011;29783;52.504;13.478;2023-06-04T12:05:12;1.90;;;0.82;;
44120;SDS011;29783;52.504;13.478;2023-06-04T12:07:43;4.63;;;1.08;;
44120;SDS011;29783;52.504;13.478;2023-06-04T12:10:10;5.88;;;0.82;;
44120;SDS011;29783;52.504;13.478;2023-06-04T12:12:38;2.72;;;0.70;;
44120;SDS011;29783;52.504;13.478;2023-06-04T12:15:05;7.13;;;0.68;;
44120;SDS011;29783;52.504;13.478;2023-06-04T12:17:32;2.15;;;0.73;;
44120;SDS011;29783;52.504;13.478;2023-06-04T12:19:58;3.30;;;0.70;;
44120;SDS011;29783;52.504;13.478;2023-06-04T12:22:24;1.75;;;0.82;;
44120;SDS011;29783;52.504;13.478;2023-06-04T12:24:52;4.60;;;0.70;;
44120;SDS011;29783;52.504;13.478;2023-06-04T12:27:19;7.97;;;0.90;;
44120;SDS011;29783;52.504;13.478;2023-06-04T12:32:21;10.45;;;0.80;;
44120;SDS011;29783;52.504;13.478;2023-06-04T12:34:47;2.15;;;0.80;;
44120;SDS011;29783;52.504;13.478;2023-06-04T12:37:13;2.22;;;0.70;;
44120;SDS011;29783;52.504;13.478;2023-06-04T12:39:39;1.05;;;0.57;;
44120;SDS011;29783;52.504;13.478;2023-06-04T12:42:05;2.47;;;0.90;;
44120;SDS011;29783;52.504;13.478;2023-06-04T12:44:32;2.95;;;0.60;;
44120;SDS011;29783;52.504;13.478;2023-06-04T12:46:58;3.72;;;0.93;;
44120;SDS011;29783;52.504;13.478;2023-06-04T12:49:23;3.90;;;1.00;;
44120;SDS011;29783;52.504;13.478;2023-06-04T12:51:49;1.92;;;0.70;;
44120;SDS011;29783;52.504;13.478;2023-06-04T12:54:15;5.72;;;0.73;;
44120;SDS011;29783;52.504;13.478;2023-06-04T12:56:40;2.75;;;0.60;;
44120;SDS011;29783;52.504;13.478;2023-06-04T12:59:06;2.30;;;0.75;;
44120;SDS011;29783;52.504;13.478;2023-06-04T13:04:08;2.15;;;0.60;;
44120;SDS011;29783;52.504;13.478;2023-06-04T13:06:34;2.28;;;0.60;;
44120;SDS011;29783;52.504;13.478;2023-06-04T13:09:02;2.38;;;0.70;;
44120;SDS011;29783;52.504;13.478;2023-06-04T13:11:33;2.80;;;0.60;;
44120;SDS011;29783;52.504;13.478;2023-06-04T13:14:01;0.88;;;0.60;;
44120;SDS011;29783;52.504;13.478;2023-06-04T13:16:27;2.35;;;0.80;;
44120;SDS011;29783;52.504;13.478;2023-06-04T13:18:53;0.95;;;0.50;;
44120;SDS011;29783;52.504;13.478;2023-06-04T13:21:18;7.85;;;0.70;;
44120;SDS011;29783;52.504;13.478;2023-06-04T13:23:44;1.15;;;0.50;;
44120;SDS011;29783;52.504;13.478;2023-06-04T13:26:10;3.08;;;0.70;;
44120;SDS011;29783;52.504;13.478;2023-06-04T13:28:35;2.50;;;0.50;;
44120;SDS011;29783;52.504;13.478;2023-06-04T13:31:02;1.33;;;0.60;;
44120;SDS011;29783;52.504;13.478;2023-06-04T13:33:27;2.30;;;0.63;;
44120;SDS011;29783;52.504;13.478;2023-06-04T13:35:53;1.63;;;0.47;;
44120;SDS011;29783;52.504;13.478;2023-06-04T13:38:19;1.65;;;0.82;;
44120;SDS011;29783;52.504;13.478;2023-06-04T13:40:44;2.53;;;0.70;;
44120;SDS011;29783;52.504;13.478;2023-06-04T13:43:10;2.80;;;0.90;;
44120;SDS011;29783;52.504;13.478;2023-06-04T13:45:36;1.60;;;0.70;;
44120;SDS011;29783;52.504;13.478;2023-06-04T13:48:02;6.03;;;0.73;;
44120;SDS011;29783;52.504;13.478;2023-06-04T13:50:33;0.93;;;0.50;;
44120;SDS011;29783;52.504;13.478;2023-06-04T13:53:00;3.38;;;0.70;;
44120;SDS011;29783;52.504;13.478;2023-06-04T13:55:25;6.72;;;0.80;;
44120;SDS011;29783;52.504;13.478;2023-06-04T13:57:51;1.52;;;0.55;;
44120;SDS011;29783;52.504;13.478;2023-06-04T14:00:16;6.03;;;0.82;;
44120;SDS011;29783;52.504;13.478;2023-06-04T14:02:42;7.43;;;0.70;;
44120;SDS011;29783;52.504;13.478;2023-06-04T14:05:08;4.55;;;0.50;;
44120;SDS011;29783;52.504;13.478;2023-06-04T14:07:33;4.15;;;0.63;;
44120;SDS011;29783;52.504;13.478;2023-06-04T14:09:59;6.70;;;1.00;;
44120;SDS011;29783;52.504;13.478;2023-06-04T14:12:25;2.08;;;0.70;;
44120;SDS011;29783;52.504;13.478;2023-06-04T14:14:54;5.70;;;0.70;;
44120;SDS011;29783;52.504;13.478;2023-06-04T14:17:20;1.90;;;0.70;;
44120;SDS011;29783;52.504;13.478;2023-06-04T14:19:45;8.57;;;1.00;;
44120;SDS011;29783;52.504;13.478;2023-06-04T14:22:11;2.78;;;0.80;;
44120;SDS011;29783;52.504;13.478;2023-06-04T14:24:37;2.55;;;0.70;;
44120;SDS011;29783;52.504;13.478;2023-06-04T14:27:03;2.55;;;0.80;;
44120;SDS011;29783;52.504;13.478;2023-06-04T14:29:29;1.52;;;0.70;;
44120;SDS011;29783;52.504;13.478;2023-06-04T14:31:54;2.47;;;0.80;;
44120;SDS011;29783;52.504;13.478;2023-06-04T14:34:20;3.42;;;0.70;;
44120;SDS011;29783;52.504;13.478;2023-06-04T14:36:46;1.13;;;0.65;;
44120;SDS011;29783;52.504;13.478;2023-06-04T14:39:12;3.70;;;0.60;;
44120;SDS011;29783;52.504;13.478;2023-06-04T14:41:37;6.40;;;0.82;;
44120;SDS011;29783;52.504;13.478;2023-06-04T14:44:03;7.68;;;0.77;;
44120;SDS011;29783;52.504;13.478;2023-06-04T14:46:29;4.90;;;0.88;;
44120;SDS011;29783;52.504;13.478;2023-06-04T14:48:54;1.60;;;0.68;;